createdAt,value
2018-01-30T00:01:26.489Z,4.30
2018-01-30T00:03:54.111Z,3.33
2018-01-30T00:06:21.779Z,3.57
2018-01-30T00:08:50.154Z,3.73
2018-01-30T00:11:18.515Z,3.30
2018-01-30T00:13:47.051Z,3.00
2018-01-30T00:16:14.916Z,2.90
2018-01-30T00:18:42.538Z,4.63
2018-01-30T00:21:10.197Z,3.53
2018-01-30T00:23:38.531Z,3.50
2018-01-30T00:26:06.238Z,3.17
2018-01-30T00:28:33.872Z,3.03
2018-01-30T00:31:01.452Z,4.23
2018-01-30T00:33:29.099Z,3.83
2018-01-30T00:35:56.779Z,4.10
2018-01-30T00:38:25.157Z,3.33
2018-01-30T00:40:52.728Z,3.03
2018-01-30T00:43:20.432Z,3.13
2018-01-30T00:45:48.062Z,3.57
2018-01-30T00:48:15.698Z,4.00
2018-01-30T00:50:43.472Z,2.63
2018-01-30T00:53:11.171Z,4.30
2018-01-30T00:55:38.788Z,2.87
2018-01-30T00:58:06.394Z,2.77
2018-01-30T01:00:34.011Z,4.03
2018-01-30T01:03:01.643Z,3.37
2018-01-30T01:05:29.210Z,2.80
2018-01-30T01:07:56.795Z,3.03
2018-01-30T01:10:24.528Z,3.00
2018-01-30T01:12:52.149Z,3.67
2018-01-30T01:15:19.761Z,3.30
2018-01-30T01:17:47.446Z,2.77
2018-01-30T01:20:15.017Z,3.27
2018-01-30T01:22:43.414Z,3.30
2018-01-30T01:25:11.751Z,3.57
2018-01-30T01:27:39.327Z,3.73
2018-01-30T01:30:06.949Z,3.47
2018-01-30T01:32:34.531Z,3.63
2018-01-30T01:35:02.219Z,4.07
2018-01-30T01:37:29.850Z,3.37
2018-01-30T01:39:57.461Z,2.93
2018-01-30T01:42:25.846Z,3.60
2018-01-30T01:44:54.219Z,3.03
2018-01-30T01:47:22.656Z,2.63
2018-01-30T01:49:50.314Z,2.97
2018-01-30T01:52:17.917Z,3.23
2018-01-30T01:54:45.498Z,3.23
2018-01-30T01:57:13.335Z,3.13
2018-01-30T01:59:40.941Z,2.80
2018-01-30T02:02:08.593Z,3.70
2018-01-30T02:04:36.176Z,3.17
2018-01-30T02:07:03.900Z,2.93
2018-01-30T02:09:31.506Z,2.77
2018-01-30T02:11:59.257Z,4.17
2018-01-30T02:14:26.936Z,3.20
2018-01-30T02:16:54.757Z,3.43
2018-01-30T02:19:22.382Z,2.83
2018-01-30T02:21:49.995Z,3.63
2018-01-30T02:24:17.703Z,3.17
2018-01-30T02:26:45.314Z,3.20
2018-01-30T02:29:13.021Z,2.60
2018-01-30T02:31:40.595Z,3.50
2018-01-30T02:34:08.173Z,3.73
2018-01-30T02:36:35.818Z,3.63
2018-01-30T02:39:03.596Z,2.80
2018-01-30T02:41:31.167Z,3.03
2018-01-30T02:43:58.977Z,3.03
2018-01-30T02:46:26.553Z,2.60
2018-01-30T02:48:54.198Z,2.90
2018-01-30T02:51:21.808Z,3.00
2018-01-30T02:53:51.009Z,2.93
2018-01-30T02:56:18.684Z,2.80
2018-01-30T02:58:46.344Z,2.97
2018-01-30T03:01:13.905Z,2.67
2018-01-30T03:03:41.521Z,2.70
2018-01-30T03:06:09.130Z,2.70
2018-01-30T03:08:37.172Z,2.90
2018-01-30T03:11:04.788Z,3.57
2018-01-30T03:13:33.294Z,3.80
2018-01-30T03:16:01.138Z,2.83
2018-01-30T03:18:28.990Z,2.70
2018-01-30T03:20:56.606Z,2.90
2018-01-30T03:23:24.222Z,2.23
2018-01-30T03:25:52.054Z,2.60
2018-01-30T03:28:19.618Z,2.23
2018-01-30T03:30:47.309Z,2.53
2018-01-30T03:33:15.038Z,2.10
2018-01-30T03:35:42.613Z,2.70
2018-01-30T03:38:10.246Z,2.10
2018-01-30T03:40:37.833Z,2.43
2018-01-30T03:43:05.481Z,2.93
2018-01-30T03:45:33.063Z,2.40
2018-01-30T03:48:00.673Z,2.73
2018-01-30T03:50:28.289Z,3.33
2018-01-30T03:52:55.867Z,2.13
2018-01-30T03:55:23.484Z,2.93
2018-01-30T03:57:51.104Z,3.17
2018-01-30T04:00:19.066Z,2.70
2018-01-30T04:02:46.706Z,2.87
2018-01-30T04:05:14.279Z,2.70
2018-01-30T04:07:41.858Z,2.20
2018-01-30T04:10:09.484Z,3.07
2018-01-30T04:12:37.084Z,2.80
2018-01-30T04:15:04.651Z,3.93
2018-01-30T04:17:32.276Z,2.67
2018-01-30T04:20:00.764Z,2.80
2018-01-30T04:22:28.483Z,2.93
2018-01-30T04:24:56.058Z,2.67
2018-01-30T04:27:23.677Z,3.03
2018-01-30T04:29:51.743Z,2.40
2018-01-30T04:32:19.366Z,3.17
2018-01-30T04:34:46.984Z,3.47
2018-01-30T04:37:14.572Z,2.93
2018-01-30T04:39:42.197Z,3.07
2018-01-30T04:42:09.913Z,2.97
2018-01-30T04:44:38.291Z,3.53
2018-01-30T04:47:06.655Z,2.77
2018-01-30T04:49:34.333Z,3.17
2018-01-30T04:52:01.919Z,3.53
2018-01-30T04:54:29.487Z,2.93
2018-01-30T04:56:57.089Z,3.23
2018-01-30T04:59:24.759Z,4.33
2018-01-30T05:01:52.486Z,3.37
2018-01-30T05:04:20.069Z,3.20
2018-01-30T05:06:54.784Z,3.47
2018-01-30T05:09:22.372Z,3.63
2018-01-30T05:11:49.975Z,3.33
2018-01-30T05:14:17.620Z,3.50
2018-01-30T05:16:45.959Z,3.33
2018-01-30T05:19:13.522Z,3.87
2018-01-30T05:21:41.347Z,3.37
2018-01-30T05:24:10.193Z,3.07
2018-01-30T05:26:37.781Z,4.00
2018-01-30T05:29:05.444Z,3.33
2018-01-30T05:31:33.830Z,3.37
2018-01-30T05:34:02.224Z,4.33
2018-01-30T05:36:29.808Z,3.13
2018-01-30T05:38:57.440Z,3.60
2018-01-30T05:41:25.784Z,4.83
2018-01-30T05:43:53.357Z,3.07
2018-01-30T05:46:20.985Z,4.50
2018-01-30T05:48:48.572Z,3.10
2018-01-30T05:51:17.185Z,3.70
2018-01-30T05:53:45.568Z,5.13
2018-01-30T05:56:13.147Z,3.87
2018-01-30T05:58:40.726Z,3.33
2018-01-30T06:01:08.351Z,3.37
2018-01-30T06:03:35.923Z,3.57
2018-01-30T06:06:03.530Z,4.03
2018-01-30T06:08:31.151Z,4.03
2018-01-30T06:10:58.714Z,3.57
2018-01-30T06:13:26.324Z,3.30
2018-01-30T06:15:53.937Z,3.27
2018-01-30T06:18:21.518Z,4.10
2018-01-30T06:20:49.106Z,3.97
2018-01-30T06:23:16.719Z,4.10
2018-01-30T06:25:44.336Z,3.23
2018-01-30T06:28:11.955Z,3.70
2018-01-30T06:30:39.545Z,3.77
2018-01-30T06:33:07.155Z,3.80
2018-01-30T06:35:34.745Z,3.17
2018-01-30T06:38:02.402Z,3.97
2018-01-30T06:40:30.059Z,4.17
2018-01-30T06:42:57.619Z,3.53
2018-01-30T06:45:25.268Z,4.73
2018-01-30T06:47:52.893Z,4.43
2018-01-30T06:50:20.474Z,4.57
2018-01-30T06:52:48.820Z,3.90
2018-01-30T06:55:16.435Z,3.87
2018-01-30T06:57:44.009Z,3.40
2018-01-30T07:00:12.654Z,3.90
2018-01-30T07:02:40.874Z,4.60
2018-01-30T07:05:08.537Z,3.87
2018-01-30T07:07:36.106Z,3.50
2018-01-30T07:10:03.681Z,3.87
2018-01-30T07:12:31.490Z,5.50
2018-01-30T07:14:59.066Z,3.77
2018-01-30T07:17:26.679Z,4.93
2018-01-30T07:19:54.237Z,5.03
2018-01-30T07:22:21.809Z,4.40
2018-01-30T07:24:49.401Z,6.03
2018-01-30T07:27:17.018Z,4.70
2018-01-30T07:29:44.637Z,4.50
2018-01-30T07:32:12.223Z,5.03
2018-01-30T07:34:39.797Z,3.87
2018-01-30T07:37:07.405Z,5.63
2018-01-30T07:39:35.010Z,4.30
2018-01-30T07:42:02.623Z,4.40
2018-01-30T07:44:30.959Z,4.17
2018-01-30T07:46:58.762Z,5.37
2018-01-30T07:49:27.136Z,4.77
2018-01-30T07:51:55.461Z,5.07
2018-01-30T07:54:23.072Z,4.87
2018-01-30T07:56:50.811Z,3.53
2018-01-30T07:59:18.481Z,4.70
2018-01-30T08:01:46.058Z,4.73
2018-01-30T08:04:13.665Z,4.50
2018-01-30T08:06:42.805Z,3.77
2018-01-30T08:09:10.507Z,3.87
2018-01-30T08:11:38.763Z,4.30
2018-01-30T08:14:06.350Z,3.97
2018-01-30T08:16:33.995Z,5.50
2018-01-30T08:19:01.746Z,5.00
2018-01-30T08:21:29.325Z,4.43
2018-01-30T08:23:56.971Z,3.90
2018-01-30T08:26:24.607Z,3.10
2018-01-30T08:28:52.170Z,3.67
2018-01-30T08:31:19.796Z,3.67
2018-01-30T08:33:47.566Z,4.30
2018-01-30T08:36:15.173Z,3.67
2018-01-30T08:38:42.758Z,3.83
2018-01-30T08:41:10.376Z,4.90
2018-01-30T08:43:37.950Z,4.53
2018-01-30T08:46:05.578Z,4.50
2018-01-30T08:48:33.158Z,4.00
2018-01-30T08:51:00.731Z,3.77
2018-01-30T08:53:28.433Z,3.77
2018-01-30T08:55:56.268Z,4.10
2018-01-30T08:58:23.856Z,4.23
2018-01-30T09:00:51.509Z,4.00
2018-01-30T09:03:19.081Z,5.03
2018-01-30T09:05:46.707Z,8.93
2018-01-30T09:08:14.283Z,5.83
2018-01-30T09:10:41.904Z,4.27
2018-01-30T09:13:09.567Z,4.60
2018-01-30T09:15:39.866Z,4.30
2018-01-30T09:18:09.478Z,4.80
2018-01-30T09:20:38.386Z,4.27
2018-01-30T09:23:10.870Z,4.57
2018-01-30T09:25:40.349Z,3.83
2018-01-30T09:28:10.357Z,5.13
2018-01-30T09:30:41.366Z,4.03
2018-01-30T09:33:10.103Z,4.40
2018-01-30T09:35:38.451Z,4.03
2018-01-30T09:38:08.295Z,4.80
2018-01-30T09:40:36.497Z,4.27
2018-01-30T09:43:05.571Z,4.23
2018-01-30T09:45:34.893Z,4.17
2018-01-30T09:48:04.190Z,3.97
2018-01-30T09:50:34.629Z,3.73
2018-01-30T09:53:02.993Z,3.33
2018-01-30T09:55:32.094Z,3.80
2018-01-30T09:58:00.638Z,3.30
2018-01-30T10:00:30.317Z,3.10
2018-01-30T10:02:58.386Z,2.90
2018-01-30T10:05:28.095Z,2.93
2018-01-30T10:07:56.537Z,2.60
2018-01-30T10:10:25.122Z,3.60
2018-01-30T10:12:55.419Z,3.13
2018-01-30T10:15:27.525Z,3.27
2018-01-30T10:17:55.901Z,2.37
2018-01-30T10:20:27.644Z,3.20
2018-01-30T10:23:00.544Z,3.07
2018-01-30T10:25:28.949Z,3.50
2018-01-30T10:27:57.819Z,2.70
2018-01-30T10:30:25.471Z,2.80
2018-01-30T10:32:53.088Z,3.33
2018-01-30T10:35:20.708Z,3.20
2018-01-30T10:37:48.270Z,3.50
2018-01-30T10:40:15.891Z,3.73
2018-01-30T10:42:43.473Z,3.13
2018-01-30T10:45:11.101Z,3.30
2018-01-30T10:47:39.504Z,3.40
2018-01-30T10:50:07.306Z,2.97
2018-01-30T10:52:35.156Z,2.60
2018-01-30T10:55:02.917Z,2.80
2018-01-30T10:57:30.520Z,2.60
2018-01-30T10:59:58.297Z,3.20
2018-01-30T11:02:26.672Z,2.63
2018-01-30T11:04:55.036Z,3.53
2018-01-30T11:07:22.841Z,2.73
2018-01-30T11:09:50.568Z,2.67
2018-01-30T11:12:18.226Z,3.20
2018-01-30T11:14:45.836Z,3.27
2018-01-30T11:17:16.420Z,3.10
2018-01-30T11:19:44.000Z,2.93
2018-01-30T11:22:11.673Z,2.40
2018-01-30T11:24:39.351Z,2.80
2018-01-30T11:27:07.021Z,3.50
2018-01-30T11:29:34.617Z,3.57
2018-01-30T11:32:02.343Z,3.07
2018-01-30T11:34:30.030Z,2.97
2018-01-30T11:36:57.771Z,3.17
2018-01-30T11:39:25.418Z,2.30
2018-01-30T11:41:53.096Z,2.70
2018-01-30T11:44:20.728Z,2.20
2018-01-30T11:46:48.523Z,2.90
2018-01-30T11:49:16.166Z,2.60
2018-01-30T11:51:43.930Z,2.80
2018-01-30T11:54:11.519Z,4.03
2018-01-30T11:56:39.218Z,2.83
2018-01-30T11:59:07.139Z,2.93
2018-01-30T12:01:35.357Z,2.90
2018-01-30T12:04:02.921Z,2.30
2018-01-30T12:06:30.593Z,2.63
2018-01-30T12:08:58.319Z,2.43
2018-01-30T12:11:26.130Z,2.40
2018-01-30T12:13:53.735Z,2.37
2018-01-30T12:16:21.681Z,2.70
2018-01-30T12:18:50.101Z,2.27
2018-01-30T12:21:17.716Z,2.17
2018-01-30T12:23:45.496Z,2.60
2018-01-30T12:26:13.160Z,2.27
2018-01-30T12:28:41.740Z,2.90
2018-01-30T12:31:09.812Z,2.33
2018-01-30T12:33:37.394Z,2.70
2018-01-30T12:36:05.138Z,2.23
2018-01-30T12:38:33.552Z,2.53
2018-01-30T12:41:01.280Z,2.83
2018-01-30T12:43:29.617Z,2.17
2018-01-30T12:45:57.508Z,3.17
2018-01-30T12:48:25.140Z,2.50
2018-01-30T12:50:52.934Z,2.50
2018-01-30T12:53:20.538Z,2.60
2018-01-30T12:55:48.170Z,2.50
2018-01-30T12:58:16.856Z,2.83
2018-01-30T13:00:45.228Z,2.07
2018-01-30T13:03:12.858Z,1.90
2018-01-30T13:05:40.561Z,1.57
2018-01-30T13:08:08.632Z,2.43
2018-01-30T13:10:36.243Z,2.13
2018-01-30T13:13:03.896Z,2.07
2018-01-30T13:15:31.598Z,2.23
2018-01-30T13:17:59.277Z,2.17
2018-01-30T13:20:26.863Z,2.17
2018-01-30T13:22:54.495Z,2.37
2018-01-30T13:25:26.406Z,2.23
2018-01-30T13:28:18.904Z,2.73
2018-01-30T13:30:48.812Z,2.93
2018-01-30T13:33:16.681Z,3.13
2018-01-30T13:35:44.315Z,2.13
2018-01-30T13:38:11.881Z,2.30
2018-01-30T13:40:39.477Z,2.20
2018-01-30T13:43:07.143Z,2.43
2018-01-30T13:45:35.096Z,2.43
2018-01-30T13:48:02.758Z,2.17
2018-01-30T13:50:30.364Z,2.47
2018-01-30T13:52:58.084Z,2.40
2018-01-30T13:55:25.772Z,2.07
2018-01-30T13:57:54.188Z,2.67
2018-01-30T14:00:21.802Z,2.17
2018-01-30T14:02:49.494Z,1.70
2018-01-30T14:05:17.703Z,1.90
2018-01-30T14:07:45.320Z,1.83
2018-01-30T14:10:12.882Z,2.30
2018-01-30T14:12:40.604Z,1.80
2018-01-30T14:15:08.210Z,1.50
2018-01-30T14:17:35.926Z,2.27
2018-01-30T14:20:03.800Z,1.90
2018-01-30T14:22:31.734Z,2.00
2018-01-30T14:24:59.630Z,1.83
2018-01-30T14:27:27.761Z,2.27
2018-01-30T14:29:55.669Z,2.10
2018-01-30T14:32:23.145Z,2.67
2018-01-30T14:34:50.786Z,1.67
2018-01-30T14:37:18.633Z,1.90
2018-01-30T14:39:47.315Z,2.27
2018-01-30T14:42:14.995Z,3.07
2018-01-30T14:44:43.562Z,2.40
2018-01-30T14:47:11.215Z,2.10
2018-01-30T14:49:38.789Z,2.40
2018-01-30T14:52:06.400Z,2.67
2018-01-30T14:54:34.420Z,2.00
2018-01-30T14:57:02.159Z,2.60
2018-01-30T14:59:29.753Z,2.70
2018-01-30T15:01:57.551Z,2.63
2018-01-30T15:04:25.150Z,2.37
2018-01-30T15:06:52.722Z,2.70
2018-01-30T15:09:20.502Z,2.53
2018-01-30T15:11:48.230Z,2.10
2018-01-30T15:14:15.891Z,2.30
2018-01-30T15:16:43.755Z,3.10
2018-01-30T15:19:11.516Z,2.30
2018-01-30T15:21:39.095Z,2.40
2018-01-30T15:24:06.773Z,3.43
2018-01-30T15:26:34.422Z,1.83
2018-01-30T15:29:02.098Z,2.47
2018-01-30T15:31:29.879Z,2.10
2018-01-30T15:33:57.538Z,2.07
2018-01-30T15:36:25.154Z,2.63
2018-01-30T15:38:52.729Z,2.77
2018-01-30T15:41:21.129Z,2.93
2018-01-30T15:43:48.830Z,1.90
2018-01-30T15:46:17.554Z,2.57
2018-01-30T15:48:45.401Z,2.37
2018-01-30T15:51:12.973Z,3.07
2018-01-30T15:53:41.009Z,2.90
2018-01-30T15:56:08.739Z,2.70
2018-01-30T15:58:36.566Z,2.57
2018-01-30T16:01:04.196Z,3.40
2018-01-30T16:03:31.867Z,2.00
2018-01-30T16:05:59.441Z,2.43
2018-01-30T16:08:27.047Z,2.53
2018-01-30T16:10:54.688Z,3.40
2018-01-30T16:13:23.090Z,2.60
2018-01-30T16:15:50.651Z,2.30
2018-01-30T16:18:18.307Z,1.93
2018-01-30T16:20:46.696Z,3.00
2018-01-30T16:23:14.265Z,2.47
2018-01-30T16:25:41.904Z,2.33
2018-01-30T16:28:10.297Z,2.03
2018-01-30T16:30:37.879Z,1.93
2018-01-30T16:33:05.504Z,2.23
2018-01-30T16:35:33.834Z,2.00
2018-01-30T16:38:01.438Z,2.80
2018-01-30T16:40:29.044Z,2.23
2018-01-30T16:42:56.666Z,2.23
2018-01-30T16:45:24.346Z,2.87
2018-01-30T16:47:51.905Z,2.13
2018-01-30T16:50:19.520Z,2.50
2018-01-30T16:52:47.285Z,2.23
2018-01-30T16:55:14.883Z,3.27
2018-01-30T16:57:42.496Z,3.57
2018-01-30T17:00:10.102Z,4.93
2018-01-30T17:02:37.764Z,4.50
2018-01-30T17:05:06.120Z,13.93
2018-01-30T17:07:33.742Z,5.97
2018-01-30T17:10:01.382Z,4.87
2018-01-30T17:12:29.001Z,5.17
2018-01-30T17:14:56.607Z,5.27
2018-01-30T17:17:24.427Z,5.57
2018-01-30T17:19:52.107Z,4.90
2018-01-30T17:22:20.058Z,5.03
2018-01-30T17:24:47.653Z,5.93
2018-01-30T17:27:16.852Z,5.30
2018-01-30T17:29:44.449Z,5.97
2018-01-30T17:32:12.109Z,6.67
2018-01-30T17:34:39.812Z,6.07
2018-01-30T17:37:07.383Z,6.80
2018-01-30T17:39:35.866Z,6.77
2018-01-30T17:42:03.556Z,6.60
2018-01-30T17:44:31.885Z,5.77
2018-01-30T17:46:59.506Z,5.77
2018-01-30T17:49:27.081Z,6.33
2018-01-30T17:51:54.968Z,6.63
2018-01-30T17:54:23.789Z,6.87
2018-01-30T17:56:51.446Z,5.70
2018-01-30T17:59:19.125Z,6.40
2018-01-30T18:01:47.674Z,5.77
2018-01-30T18:04:15.231Z,5.20
2018-01-30T18:06:42.838Z,4.93
2018-01-30T18:09:10.438Z,5.10
2018-01-30T18:11:38.043Z,4.97
2018-01-30T18:14:05.665Z,6.90
2018-01-30T18:16:33.237Z,6.53
2018-01-30T18:19:00.860Z,5.80
2018-01-30T18:21:28.417Z,5.37
2018-01-30T18:23:56.073Z,6.03
2018-01-30T18:26:23.686Z,6.53
2018-01-30T18:28:51.250Z,5.90
2018-01-30T18:31:18.823Z,6.47
2018-01-30T18:33:46.423Z,6.37
2018-01-30T18:36:14.028Z,5.90
2018-01-30T18:38:41.597Z,6.97
2018-01-30T18:41:09.198Z,6.03
2018-01-30T18:43:36.768Z,6.30
2018-01-30T18:46:04.380Z,6.30
2018-01-30T18:48:32.004Z,6.07
2018-01-30T18:50:59.594Z,7.70
2018-01-30T18:53:27.249Z,8.47
2018-01-30T18:55:54.806Z,8.37
2018-01-30T18:58:22.499Z,7.87
2018-01-30T19:00:50.758Z,8.47
2018-01-30T19:03:18.352Z,8.67
2018-01-30T19:05:45.950Z,9.33
2018-01-30T19:08:13.518Z,9.03
2018-01-30T19:10:41.217Z,10.80
2018-01-30T19:13:08.787Z,8.90
2018-01-30T19:15:36.355Z,10.30
2018-01-30T19:18:04.079Z,10.20
2018-01-30T19:20:32.403Z,11.00
2018-01-30T19:23:00.066Z,10.40
2018-01-30T19:25:28.398Z,10.70
2018-01-30T19:27:55.970Z,12.70
2018-01-30T19:30:23.582Z,12.60
2018-01-30T19:32:51.238Z,11.40
2018-01-30T19:35:19.585Z,11.03
2018-01-30T19:37:47.193Z,11.77
2018-01-30T19:40:14.827Z,12.70
2018-01-30T19:42:42.498Z,12.80
2018-01-30T19:45:10.832Z,12.40
2018-01-30T19:47:38.437Z,12.43
2018-01-30T19:50:06.818Z,12.37
2018-01-30T19:52:34.381Z,13.90
2018-01-30T19:55:01.994Z,14.27
2018-01-30T19:57:29.608Z,15.07
2018-01-30T19:59:57.178Z,13.97
2018-01-30T20:02:24.793Z,15.07
2018-01-30T20:04:52.393Z,17.27
2018-01-30T20:07:20.006Z,16.93
2018-01-30T20:09:47.626Z,17.70
2018-01-30T20:12:15.204Z,16.93
2018-01-30T20:14:42.808Z,17.63
2018-01-30T20:17:10.371Z,19.37
2018-01-30T20:19:38.084Z,20.30
2018-01-30T20:22:05.784Z,20.87
2018-01-30T20:24:33.438Z,21.70
2018-01-30T20:27:01.050Z,21.73
2018-01-30T20:29:28.662Z,21.93
2018-01-30T20:31:56.277Z,23.83
2018-01-30T20:34:23.899Z,22.73
2018-01-30T20:36:51.559Z,24.20
2018-01-30T20:39:19.259Z,24.93
2018-01-30T20:41:47.593Z,24.70
2018-01-30T20:44:15.168Z,26.00
2018-01-30T20:46:42.788Z,26.10
2018-01-30T20:49:10.374Z,26.03
2018-01-30T20:51:37.990Z,26.27
2018-01-30T20:54:05.614Z,26.07
2018-01-30T20:56:33.294Z,26.33
2018-01-30T20:59:01.626Z,26.27
2018-01-30T21:01:29.234Z,25.50
2018-01-30T21:03:56.797Z,27.30
2018-01-30T21:06:24.411Z,26.77
2018-01-30T21:08:52.026Z,24.87
2018-01-30T21:11:19.606Z,27.93
2018-01-30T21:13:48.019Z,27.83
2018-01-30T21:16:15.649Z,27.03
2018-01-30T21:18:44.194Z,27.90
2018-01-30T21:21:11.757Z,26.63
2018-01-30T21:23:39.406Z,26.03
2018-01-30T21:26:07.010Z,25.73
2018-01-30T21:28:34.620Z,26.63
2018-01-30T21:31:02.245Z,25.23
2018-01-30T21:33:29.815Z,26.33
2018-01-30T21:35:57.422Z,27.20
2018-01-30T21:38:24.991Z,26.70
2018-01-30T21:40:53.441Z,27.07
2018-01-30T21:43:21.013Z,26.73
2018-01-30T21:45:48.644Z,28.27
2018-01-30T21:48:16.334Z,27.33
2018-01-30T21:50:43.919Z,28.60
2018-01-30T21:53:12.374Z,28.67
2018-01-30T21:55:40.845Z,27.43
2018-01-30T21:58:08.453Z,29.43
2018-01-30T22:00:36.027Z,27.27
2018-01-30T22:03:03.668Z,29.93
2018-01-30T22:05:31.258Z,27.30
2018-01-30T22:07:58.862Z,28.30
2018-01-30T22:10:26.490Z,31.20
2018-01-30T22:12:54.057Z,30.60
2018-01-30T22:15:21.627Z,31.37
2018-01-30T22:17:49.239Z,29.70
2018-01-30T22:20:17.631Z,31.07
2018-01-30T22:22:45.198Z,28.90
2018-01-30T22:25:12.757Z,29.57
2018-01-30T22:27:40.365Z,29.83
2018-01-30T22:30:07.929Z,29.53
2018-01-30T22:32:35.534Z,30.37
2018-01-30T22:35:03.094Z,28.87
2018-01-30T22:37:30.694Z,31.33
2018-01-30T22:39:58.256Z,33.03
2018-01-30T22:42:25.858Z,32.30
2018-01-30T22:44:53.465Z,34.73
